sensor_id;sensor_type;location;lat;lon;timestamp;P1;durP1;ratioP1;P2;durP2;ratioP2
37787;SDS011;23627;53.302;-6.362;2023-08-01T00:02:20;5.28;;;1.58;;
37787;SDS011;23627;53.302;-6.362;2023-08-01T00:04:46;7.40;;;1.77;;
37787;SDS011;23627;53.302;-6.362;2023-08-01T00:07:11;7.60;;;1.70;;
37787;SDS011;23627;53.302;-6.362;2023-08-01T00:09:37;10.35;;;1.70;;
37787;SDS011;23627;53.302;-6.362;2023-08-01T00:12:03;9.02;;;1.67;;
37787;SDS011;23627;53.302;-6.362;2023-08-01T00:14:29;10.63;;;1.70;;
37787;SDS011;23627;53.302;-6.362;2023-08-01T00:16:55;6.50;;;1.30;;
37787;SDS011;23627;53.302;-6.362;2023-08-01T00:19:20;8.70;;;1.70;;
37787;SDS011;23627;53.302;-6.362;2023-08-01T00:21:46;7.35;;;1.73;;
37787;SDS011;23627;53.302;-6.362;2023-08-01T00:24:12;10.68;;;2.00;;
37787;SDS011;23627;53.302;-6.362;2023-08-01T00:26:38;4.78;;;1.30;;
37787;SDS011;23627;53.302;-6.362;2023-08-01T00:29:03;7.53;;;1.75;;
37787;SDS011;23627;53.302;-6.362;2023-08-01T00:31:29;7.43;;;1.65;;
37787;SDS011;23627;53.302;-6.362;2023-08-01T00:33:55;7.97;;;1.60;;
37787;SDS011;23627;53.302;-6.362;2023-08-01T00:36:21;5.97;;;1.60;;
37787;SDS011;23627;53.302;-6.362;2023-08-01T00:38:46;8.85;;;1.60;;
37787;SDS011;23627;53.302;-6.362;2023-08-01T00:41:13;6.75;;;1.55;;
37787;SDS011;23627;53.302;-6.362;2023-08-01T00:43:39;8.15;;;1.90;;
37787;SDS011;23627;53.302;-6.362;2023-08-01T00:46:05;9.38;;;1.50;;
37787;SDS011;23627;53.302;-6.362;2023-08-01T00:48:33;9.25;;;1.60;;
37787;SDS011;23627;53.302;-6.362;2023-08-01T00:51:05;6.72;;;1.50;;
37787;SDS011;23627;53.302;-6.362;2023-08-01T00:53:33;4.85;;;1.48;;
37787;SDS011;23627;53.302;-6.362;2023-08-01T00:56:00;8.00;;;1.55;;
37787;SDS011;23627;53.302;-6.362;2023-08-01T00:58:26;8.32;;;1.50;;
37787;SDS011;23627;53.302;-6.362;2023-08-01T01:00:52;9.80;;;1.50;;
37787;SDS011;23627;53.302;-6.362;2023-08-01T01:03:18;7.93;;;1.80;;
37787;SDS011;23627;53.302;-6.362;2023-08-01T01:05:52;4.97;;;1.30;;
37787;SDS011;23627;53.302;-6.362;2023-08-01T01:08:22;7.60;;;1.70;;
37787;SDS011;23627;53.302;-6.362;2023-08-01T01:10:48;6.43;;;1.40;;
37787;SDS011;23627;53.302;-6.362;2023-08-01T01:13:13;6.15;;;1.40;;
37787;SDS011;23627;53.302;-6.362;2023-08-01T01:15:39;5.88;;;1.45;;
37787;SDS011;23627;53.302;-6.362;2023-08-01T01:18:05;5.43;;;1.77;;
37787;SDS011;23627;53.302;-6.362;2023-08-01T01:20:34;8.90;;;1.77;;
37787;SDS011;23627;53.302;-6.362;2023-08-01T01:23:00;6.47;;;2.10;;
37787;SDS011;23627;53.302;-6.362;2023-08-01T01:25:29;8.60;;;1.40;;
37787;SDS011;23627;53.302;-6.362;2023-08-01T01:27:56;7.22;;;1.45;;
37787;SDS011;23627;53.302;-6.362;2023-08-01T01:30:23;6.78;;;1.63;;
37787;SDS011;23627;53.302;-6.362;2023-08-01T01:32:49;6.97;;;1.83;;
37787;SDS011;23627;53.302;-6.362;2023-08-01T01:35:16;7.82;;;1.50;;
37787;SDS011;23627;53.302;-6.362;2023-08-01T01:37:41;4.30;;;1.77;;
37787;SDS011;23627;53.302;-6.362;2023-08-01T01:40:07;6.55;;;1.48;;
37787;SDS011;23627;53.302;-6.362;2023-08-01T01:42:34;5.68;;;1.95;;
37787;SDS011;23627;53.302;-6.362;2023-08-01T01:45:00;4.53;;;1.20;;
37787;SDS011;23627;53.302;-6.362;2023-08-01T01:47:25;6.65;;;1.58;;
37787;SDS011;23627;53.302;-6.362;2023-08-01T01:49:51;6.40;;;1.50;;
37787;SDS011;23627;53.302;-6.362;2023-08-01T01:52:17;5.55;;;1.35;;
37787;SDS011;23627;53.302;-6.362;2023-08-01T01:54:42;5.72;;;1.30;;
37787;SDS011;23627;53.302;-6.362;2023-08-01T01:57:08;5.30;;;1.30;;
37787;SDS011;23627;53.302;-6.362;2023-08-01T01:59:34;7.20;;;2.00;;
37787;SDS011;23627;53.302;-6.362;2023-08-01T02:02:00;8.02;;;1.20;;
37787;SDS011;23627;53.302;-6.362;2023-08-01T02:04:25;6.35;;;1.52;;
37787;SDS011;23627;53.302;-6.362;2023-08-01T02:06:51;7.32;;;1.52;;
37787;SDS011;23627;53.302;-6.362;2023-08-01T02:09:19;6.63;;;1.30;;
37787;SDS011;23627;53.302;-6.362;2023-08-01T02:11:45;5.07;;;1.52;;
37787;SDS011;23627;53.302;-6.362;2023-08-01T02:14:11;6.78;;;1.42;;
37787;SDS011;23627;53.302;-6.362;2023-08-01T02:16:36;6.20;;;1.40;;
37787;SDS011;23627;53.302;-6.362;2023-08-01T02:19:02;7.60;;;1.50;;
37787;SDS011;23627;53.302;-6.362;2023-08-01T02:21:28;6.55;;;1.38;;
37787;SDS011;23627;53.302;-6.362;2023-08-01T02:23:55;5.57;;;1.55;;
37787;SDS011;23627;53.302;-6.362;2023-08-01T02:26:21;9.20;;;1.50;;
37787;SDS011;23627;53.302;-6.362;2023-08-01T02:28:48;7.13;;;1.50;;
37787;SDS011;23627;53.302;-6.362;2023-08-01T02:31:14;6.50;;;1.38;;
37787;SDS011;23627;53.302;-6.362;2023-08-01T02:33:40;5.78;;;1.45;;
37787;SDS011;23627;53.302;-6.362;2023-08-01T02:36:06;6.50;;;1.45;;
37787;SDS011;23627;53.302;-6.362;2023-08-01T02:38:32;5.90;;;1.30;;
37787;SDS011;23627;53.302;-6.362;2023-08-01T02:40:58;7.25;;;1.23;;
37787;SDS011;23627;53.302;-6.362;2023-08-01T02:43:23;4.70;;;1.10;;
37787;SDS011;23627;53.302;-6.362;2023-08-01T02:45:49;11.45;;;1.70;;
37787;SDS011;23627;53.302;-6.362;2023-08-01T02:48:15;8.10;;;1.50;;
37787;SDS011;23627;53.302;-6.362;2023-08-01T02:50:41;7.25;;;1.17;;
37787;SDS011;23627;53.302;-6.362;2023-08-01T02:53:07;5.10;;;1.20;;
37787;SDS011;23627;53.302;-6.362;2023-08-01T02:55:33;5.10;;;1.52;;
37787;SDS011;23627;53.302;-6.362;2023-08-01T02:57:59;5.38;;;1.40;;
37787;SDS011;23627;53.302;-6.362;2023-08-01T03:00:24;4.35;;;1.23;;
37787;SDS011;23627;53.302;-6.362;2023-08-01T03:02:50;6.28;;;1.58;;
37787;SDS011;23627;53.302;-6.362;2023-08-01T03:05:17;6.13;;;1.60;;
37787;SDS011;23627;53.302;-6.362;2023-08-01T03:07:42;6.93;;;1.20;;
37787;SDS011;23627;53.302;-6.362;2023-08-01T03:10:08;9.18;;;1.48;;
37787;SDS011;23627;53.302;-6.362;2023-08-01T03:12:36;7.00;;;1.52;;
37787;SDS011;23627;53.302;-6.362;2023-08-01T03:15:02;6.50;;;1.30;;
37787;SDS011;23627;53.302;-6.362;2023-08-01T03:17:28;6.57;;;1.30;;
37787;SDS011;23627;53.302;-6.362;2023-08-01T03:19:54;7.05;;;1.42;;
37787;SDS011;23627;53.302;-6.362;2023-08-01T03:22:20;6.43;;;1.30;;
37787;SDS011;23627;53.302;-6.362;2023-08-01T03:24:46;4.95;;;1.27;;
37787;SDS011;23627;53.302;-6.362;2023-08-01T03:27:12;7.38;;;1.60;;
37787;SDS011;23627;53.302;-6.362;2023-08-01T03:29:38;7.03;;;1.52;;
37787;SDS011;23627;53.302;-6.362;2023-08-01T03:32:04;6.20;;;1.60;;
37787;SDS011;23627;53.302;-6.362;2023-08-01T03:34:30;5.63;;;1.42;;
37787;SDS011;23627;53.302;-6.362;2023-08-01T03:36:56;5.85;;;1.30;;
37787;SDS011;23627;53.302;-6.362;2023-08-01T03:39:21;6.72;;;1.20;;
37787;SDS011;23627;53.302;-6.362;2023-08-01T03:41:47;7.13;;;1.50;;
37787;SDS011;23627;53.302;-6.362;2023-08-01T03:44:13;4.25;;;1.40;;
37787;SDS011;23627;53.302;-6.362;2023-08-01T03:46:39;5.07;;;1.25;;
37787;SDS011;23627;53.302;-6.362;2023-08-01T03:49:05;5.35;;;1.40;;
37787;SDS011;23627;53.302;-6.362;2023-08-01T03:51:31;4.10;;;1.38;;
37787;SDS011;23627;53.302;-6.362;2023-08-01T03:53:57;6.00;;;1.30;;
37787;SDS011;23627;53.302;-6.362;2023-08-01T03:56:23;5.30;;;1.40;;
37787;SDS011;23627;53.302;-6.362;2023-08-01T03:58:48;4.90;;;1.23;;
37787;SDS011;23627;53.302;-6.362;2023-08-01T04:01:14;6.30;;;1.30;;
37787;SDS011;23627;53.302;-6.362;2023-08-01T04:03:40;4.95;;;1.40;;
37787;SDS011;23627;53.302;-6.362;2023-08-01T04:06:05;5.07;;;1.20;;
37787;SDS011;23627;53.302;-6.362;2023-08-01T04:08:31;5.07;;;1.50;;
37787;SDS011;23627;53.302;-6.362;2023-08-01T04:10:57;4.53;;;1.13;;
37787;SDS011;23627;53.302;-6.362;2023-08-01T04:13:23;4.45;;;1.20;;
37787;SDS011;23627;53.302;-6.362;2023-08-01T04:15:48;4.82;;;1.40;;
37787;SDS011;23627;53.302;-6.362;2023-08-01T04:18:14;4.43;;;1.30;;
37787;SDS011;23627;53.302;-6.362;2023-08-01T04:20:40;8.43;;;1.58;;
37787;SDS011;23627;53.302;-6.362;2023-08-01T04:23:05;4.18;;;1.10;;
37787;SDS011;23627;53.302;-6.362;2023-08-01T04:25:31;8.43;;;1.25;;
37787;SDS011;23627;53.302;-6.362;2023-08-01T04:27:57;5.70;;;1.30;;
37787;SDS011;23627;53.302;-6.362;2023-08-01T04:30:23;4.40;;;1.10;;
37787;SDS011;23627;53.302;-6.362;2023-08-01T04:32:48;5.50;;;1.40;;
37787;SDS011;23627;53.302;-6.362;2023-08-01T04:35:14;3.88;;;1.35;;
37787;SDS011;23627;53.302;-6.362;2023-08-01T04:37:40;4.53;;;1.17;;
37787;SDS011;23627;53.302;-6.362;2023-08-01T04:40:05;4.32;;;1.25;;
37787;SDS011;23627;53.302;-6.362;2023-08-01T04:42:32;5.90;;;1.20;;
37787;SDS011;23627;53.302;-6.362;2023-08-01T04:44:57;4.35;;;0.90;;
37787;SDS011;23627;53.302;-6.362;2023-08-01T04:47:23;3.88;;;1.20;;
37787;SDS011;23627;53.302;-6.362;2023-08-01T04:49:49;5.82;;;1.35;;
37787;SDS011;23627;53.302;-6.362;2023-08-01T04:52:15;5.20;;;1.10;;
37787;SDS011;23627;53.302;-6.362;2023-08-01T04:54:40;7.60;;;1.75;;
37787;SDS011;23627;53.302;-6.362;2023-08-01T04:57:06;5.60;;;1.52;;
37787;SDS011;23627;53.302;-6.362;2023-08-01T04:59:32;8.57;;;1.63;;
37787;SDS011;23627;53.302;-6.362;2023-08-01T05:01:58;6.32;;;1.38;;
37787;SDS011;23627;53.302;-6.362;2023-08-01T05:04:23;4.50;;;1.15;;
37787;SDS011;23627;53.302;-6.362;2023-08-01T05:06:50;5.65;;;1.20;;
37787;SDS011;23627;53.302;-6.362;2023-08-01T05:09:15;4.43;;;1.13;;
37787;SDS011;23627;53.302;-6.362;2023-08-01T05:11:41;5.25;;;1.40;;
37787;SDS011;23627;53.302;-6.362;2023-08-01T05:14:07;4.53;;;1.25;;
37787;SDS011;23627;53.302;-6.362;2023-08-01T05:16:33;4.57;;;1.30;;
37787;SDS011;23627;53.302;-6.362;2023-08-01T05:18:58;4.65;;;1.20;;
37787;SDS011;23627;53.302;-6.362;2023-08-01T05:21:24;4.60;;;1.23;;
37787;SDS011;23627;53.302;-6.362;2023-08-01T05:23:50;3.78;;;1.00;;
37787;SDS011;23627;53.302;-6.362;2023-08-01T05:26:16;5.82;;;1.20;;
37787;SDS011;23627;53.302;-6.362;2023-08-01T05:28:41;6.93;;;1.20;;
37787;SDS011;23627;53.302;-6.362;2023-08-01T05:31:08;6.53;;;1.27;;
37787;SDS011;23627;53.302;-6.362;2023-08-01T05:33:34;5.63;;;1.10;;
37787;SDS011;23627;53.302;-6.362;2023-08-01T05:36:00;5.15;;;1.33;;
37787;SDS011;23627;53.302;-6.362;2023-08-01T05:38:26;4.63;;;0.98;;
37787;SDS011;23627;53.302;-6.362;2023-08-01T05:40:52;6.55;;;1.20;;
37787;SDS011;23627;53.302;-6.362;2023-08-01T05:43:17;6.88;;;1.30;;
37787;SDS011;23627;53.302;-6.362;2023-08-01T05:45:43;6.22;;;1.33;;
37787;SDS011;23627;53.302;-6.362;2023-08-01T05:48:09;10.18;;;1.42;;
37787;SDS011;23627;53.302;-6.362;2023-08-01T05:50:35;5.38;;;1.40;;
37787;SDS011;23627;53.302;-6.362;2023-08-01T05:53:01;5.97;;;1.08;;
37787;SDS011;23627;53.302;-6.362;2023-08-01T05:55:27;6.88;;;1.15;;
37787;SDS011;23627;53.302;-6.362;2023-08-01T05:57:52;4.97;;;1.20;;
37787;SDS011;23627;53.302;-6.362;2023-08-01T06:00:18;4.40;;;1.40;;
37787;SDS011;23627;53.302;-6.362;2023-08-01T06:02:47;4.70;;;1.02;;
37787;SDS011;23627;53.302;-6.362;2023-08-01T06:05:13;4.88;;;1.00;;
37787;SDS011;23627;53.302;-6.362;2023-08-01T06:07:39;6.30;;;1.30;;
37787;SDS011;23627;53.302;-6.362;2023-08-01T06:10:04;5.70;;;1.23;;
37787;SDS011;23627;53.302;-6.362;2023-08-01T06:12:30;7.50;;;1.40;;
37787;SDS011;23627;53.302;-6.362;2023-08-01T06:14:56;6.35;;;1.30;;
37787;SDS011;23627;53.302;-6.362;2023-08-01T06:17:22;5.25;;;1.10;;
37787;SDS011;23627;53.302;-6.362;2023-08-01T06:19:48;4.03;;;1.20;;
37787;SDS011;23627;53.302;-6.362;2023-08-01T06:22:15;5.25;;;1.25;;
37787;SDS011;23627;53.302;-6.362;2023-08-01T06:24:40;6.88;;;1.27;;
37787;SDS011;23627;53.302;-6.362;2023-08-01T06:27:06;4.10;;;1.00;;
37787;SDS011;23627;53.302;-6.362;2023-08-01T06:29:32;3.78;;;0.90;;
37787;SDS011;23627;53.302;-6.362;2023-08-01T06:31:58;8.57;;;1.70;;
37787;SDS011;23627;53.302;-6.362;2023-08-01T06:34:24;5.85;;;1.35;;
37787;SDS011;23627;53.302;-6.362;2023-08-01T06:36:50;3.42;;;1.20;;
37787;SDS011;23627;53.302;-6.362;2023-08-01T06:39:16;6.50;;;1.10;;
37787;SDS011;23627;53.302;-6.362;2023-08-01T06:41:41;4.85;;;1.20;;
37787;SDS011;23627;53.302;-6.362;2023-08-01T06:44:07;4.95;;;1.20;;
37787;SDS011;23627;53.302;-6.362;2023-08-01T06:46:33;8.23;;;1.90;;
37787;SDS011;23627;53.302;-6.362;2023-08-01T06:48:59;5.38;;;1.50;;
37787;SDS011;23627;53.302;-6.362;2023-08-01T06:51:24;6.88;;;1.50;;
37787;SDS011;23627;53.302;-6.362;2023-08-01T06:53:50;3.45;;;1.08;;
37787;SDS011;23627;53.302;-6.362;2023-08-01T07:16:59;3.65;;;1.10;;
37787;SDS011;23627;53.302;-6.362;2023-08-01T07:37:50;4.53;;;0.95;;
37787;SDS011;23627;53.302;-6.362;2023-08-01T07:56:19;4.90;;;0.90;;
37787;SDS011;23627;53.302;-6.362;2023-08-01T09:39:42;1.70;;;0.43;;
37787;SDS011;23627;53.302;-6.362;2023-08-01T10:26:03;1.00;;;0.30;;
37787;SDS011;23627;53.302;-6.362;2023-08-01T16:56:57;0.32;;;0.13;;
37787;SDS011;23627;53.302;-6.362;2023-08-01T17:02:02;0.82;;;0.20;;
37787;SDS011;23627;53.302;-6.362;2023-08-01T17:04:28;0.90;;;0.20;;
37787;SDS011;23627;53.302;-6.362;2023-08-01T17:06:54;0.52;;;0.20;;
37787;SDS011;23627;53.302;-6.362;2023-08-01T17:09:20;0.60;;;0.20;;
37787;SDS011;23627;53.302;-6.362;2023-08-01T17:11:46;0.60;;;0.20;;
37787;SDS011;23627;53.302;-6.362;2023-08-01T17:14:12;1.55;;;0.20;;
37787;SDS011;23627;53.302;-6.362;2023-08-01T17:16:41;1.10;;;0.30;;
37787;SDS011;23627;53.302;-6.362;2023-08-01T17:19:06;0.63;;;0.30;;
37787;SDS011;23627;53.302;-6.362;2023-08-01T17:21:32;0.73;;;0.10;;
37787;SDS011;23627;53.302;-6.362;2023-08-01T17:23:58;0.40;;;0.20;;
37787;SDS011;23627;53.302;-6.362;2023-08-01T17:26:24;0.70;;;0.40;;
37787;SDS011;23627;53.302;-6.362;2023-08-01T17:28:50;1.02;;;0.22;;
37787;SDS011;23627;53.302;-6.362;2023-08-01T17:31:16;0.88;;;0.20;;
37787;SDS011;23627;53.302;-6.362;2023-08-01T17:33:44;0.95;;;0.30;;
37787;SDS011;23627;53.302;-6.362;2023-08-01T17:36:11;0.95;;;0.20;;
37787;SDS011;23627;53.302;-6.362;2023-08-01T17:38:36;0.80;;;0.43;;
37787;SDS011;23627;53.302;-6.362;2023-08-01T17:41:17;2.00;;;0.30;;
37787;SDS011;23627;53.302;-6.362;2023-08-01T17:43:48;1.73;;;0.40;;
37787;SDS011;23627;53.302;-6.362;2023-08-01T17:46:14;1.02;;;0.50;;
37787;SDS011;23627;53.302;-6.362;2023-08-01T17:48:41;0.90;;;0.40;;
37787;SDS011;23627;53.302;-6.362;2023-08-01T17:51:07;1.38;;;0.30;;
37787;SDS011;23627;53.302;-6.362;2023-08-01T17:53:34;1.23;;;0.40;;
37787;SDS011;23627;53.302;-6.362;2023-08-01T17:56:02;2.00;;;0.40;;
37787;SDS011;23627;53.302;-6.362;2023-08-01T17:58:28;1.40;;;0.82;;
37787;SDS011;23627;53.302;-6.362;2023-08-01T18:00:54;2.00;;;0.70;;
37787;SDS011;23627;53.302;-6.362;2023-08-01T18:03:20;2.40;;;0.77;;
37787;SDS011;23627;53.302;-6.362;2023-08-01T18:05:46;2.00;;;1.00;;
37787;SDS011;23627;53.302;-6.362;2023-08-01T18:08:12;1.35;;;0.63;;
37787;SDS011;23627;53.302;-6.362;2023-08-01T18:10:39;1.73;;;0.60;;
37787;SDS011;23627;53.302;-6.362;2023-08-01T18:13:05;4.85;;;0.70;;
37787;SDS011;23627;53.302;-6.362;2023-08-01T18:15:38;2.72;;;0.80;;
37787;SDS011;23627;53.302;-6.362;2023-08-01T18:18:06;1.88;;;0.57;;
37787;SDS011;23627;53.302;-6.362;2023-08-01T18:20:33;2.03;;;0.70;;
37787;SDS011;23627;53.302;-6.362;2023-08-01T18:22:59;3.63;;;0.50;;
37787;SDS011;23627;53.302;-6.362;2023-08-01T18:25:25;2.78;;;0.70;;
37787;SDS011;23627;53.302;-6.362;2023-08-01T18:27:51;3.00;;;0.68;;
37787;SDS011;23627;53.302;-6.362;2023-08-01T18:30:17;2.35;;;0.70;;
37787;SDS011;23627;53.302;-6.362;2023-08-01T18:32:43;1.67;;;0.60;;
37787;SDS011;23627;53.302;-6.362;2023-08-01T18:35:08;3.35;;;0.63;;
37787;SDS011;23627;53.302;-6.362;2023-08-01T18:37:34;2.65;;;0.75;;
37787;SDS011;23627;53.302;-6.362;2023-08-01T18:40:00;2.05;;;0.43;;
37787;SDS011;23627;53.302;-6.362;2023-08-01T18:42:28;4.32;;;0.73;;
37787;SDS011;23627;53.302;-6.362;2023-08-01T18:44:54;2.30;;;0.70;;
37787;SDS011;23627;53.302;-6.362;2023-08-01T18:47:20;2.13;;;0.63;;
37787;SDS011;23627;53.302;-6.362;2023-08-01T18:49:46;3.10;;;0.70;;
37787;SDS011;23627;53.302;-6.362;2023-08-01T18:52:14;3.72;;;0.70;;
37787;SDS011;23627;53.302;-6.362;2023-08-01T18:54:40;1.65;;;0.60;;
37787;SDS011;23627;53.302;-6.362;2023-08-01T18:57:07;1.63;;;0.60;;
37787;SDS011;23627;53.302;-6.362;2023-08-01T18:59:33;3.65;;;0.80;;
37787;SDS011;23627;53.302;-6.362;2023-08-01T19:01:58;1.48;;;0.68;;
37787;SDS011;23627;53.302;-6.362;2023-08-01T19:04:28;2.30;;;0.70;;
37787;SDS011;23627;53.302;-6.362;2023-08-01T19:07:00;2.72;;;0.80;;
37787;SDS011;23627;53.302;-6.362;2023-08-01T19:09:26;1.13;;;0.60;;
37787;SDS011;23627;53.302;-6.362;2023-08-01T19:11:53;1.80;;;0.60;;
37787;SDS011;23627;53.302;-6.362;2023-08-01T19:14:19;2.22;;;0.70;;
37787;SDS011;23627;53.302;-6.362;2023-08-01T19:16:49;2.35;;;0.95;;
37787;SDS011;23627;53.302;-6.362;2023-08-01T19:19:24;1.55;;;0.57;;
37787;SDS011;23627;53.302;-6.362;2023-08-01T19:21:52;1.80;;;0.68;;
37787;SDS011;23627;53.302;-6.362;2023-08-01T19:24:18;1.10;;;0.65;;
37787;SDS011;23627;53.302;-6.362;2023-08-01T19:26:47;1.77;;;0.60;;
37787;SDS011;23627;53.302;-6.362;2023-08-01T19:29:14;1.13;;;0.45;;
37787;SDS011;23627;53.302;-6.362;2023-08-01T19:31:41;1.80;;;0.50;;
37787;SDS011;23627;53.302;-6.362;2023-08-01T19:34:09;2.92;;;0.70;;
37787;SDS011;23627;53.302;-6.362;2023-08-01T19:36:42;2.35;;;0.63;;
37787;SDS011;23627;53.302;-6.362;2023-08-01T19:39:10;1.88;;;0.70;;
37787;SDS011;23627;53.302;-6.362;2023-08-01T19:41:38;2.03;;;0.55;;
37787;SDS011;23627;53.302;-6.362;2023-08-01T19:44:04;1.98;;;0.60;;
37787;SDS011;23627;53.302;-6.362;2023-08-01T19:46:31;4.03;;;0.80;;
37787;SDS011;23627;53.302;-6.362;2023-08-01T19:48:57;1.85;;;0.85;;
37787;SDS011;23627;53.302;-6.362;2023-08-01T19:51:23;2.45;;;0.70;;
37787;SDS011;23627;53.302;-6.362;2023-08-01T19:53:49;2.28;;;0.85;;
37787;SDS011;23627;53.302;-6.362;2023-08-01T19:56:15;2.90;;;0.90;;
37787;SDS011;23627;53.302;-6.362;2023-08-01T19:58:42;3.13;;;0.75;;
37787;SDS011;23627;53.302;-6.362;2023-08-01T20:01:08;2.13;;;0.80;;
37787;SDS011;23627;53.302;-6.362;2023-08-01T20:03:35;1.85;;;0.80;;
37787;SDS011;23627;53.302;-6.362;2023-08-01T20:06:01;2.55;;;0.70;;
37787;SDS011;23627;53.302;-6.362;2023-08-01T20:08:27;3.50;;;0.80;;
37787;SDS011;23627;53.302;-6.362;2023-08-01T20:10:58;2.22;;;0.95;;
37787;SDS011;23627;53.302;-6.362;2023-08-01T20:13:25;2.65;;;0.90;;
37787;SDS011;23627;53.302;-6.362;2023-08-01T20:15:52;2.58;;;0.73;;
37787;SDS011;23627;53.302;-6.362;2023-08-01T20:18:18;2.55;;;0.75;;
37787;SDS011;23627;53.302;-6.362;2023-08-01T20:20:47;2.70;;;0.60;;
37787;SDS011;23627;53.302;-6.362;2023-08-01T20:23:13;3.42;;;1.00;;
37787;SDS011;23627;53.302;-6.362;2023-08-01T20:25:40;3.40;;;0.80;;
37787;SDS011;23627;53.302;-6.362;2023-08-01T20:28:07;3.38;;;1.13;;
37787;SDS011;23627;53.302;-6.362;2023-08-01T20:30:34;3.47;;;0.90;;
37787;SDS011;23627;53.302;-6.362;2023-08-01T20:33:00;2.15;;;0.95;;
37787;SDS011;23627;53.302;-6.362;2023-08-01T20:35:27;3.33;;;0.90;;
37787;SDS011;23627;53.302;-6.362;2023-08-01T20:37:53;3.97;;;0.70;;
37787;SDS011;23627;53.302;-6.362;2023-08-01T20:40:19;2.50;;;0.90;;
37787;SDS011;23627;53.302;-6.362;2023-08-01T20:42:45;1.42;;;0.60;;
37787;SDS011;23627;53.302;-6.362;2023-08-01T20:45:12;3.13;;;0.80;;
37787;SDS011;23627;53.302;-6.362;2023-08-01T20:47:38;3.08;;;0.95;;
37787;SDS011;23627;53.302;-6.362;2023-08-01T20:50:04;2.28;;;0.77;;
37787;SDS011;23627;53.302;-6.362;2023-08-01T20:52:30;2.00;;;0.70;;
37787;SDS011;23627;53.302;-6.362;2023-08-01T20:54:56;4.85;;;0.82;;
37787;SDS011;23627;53.302;-6.362;2023-08-01T20:57:22;3.20;;;0.88;;
37787;SDS011;23627;53.302;-6.362;2023-08-01T20:59:47;3.30;;;0.98;;
37787;SDS011;23627;53.302;-6.362;2023-08-01T21:02:13;3.28;;;0.80;;
37787;SDS011;23627;53.302;-6.362;2023-08-01T21:04:39;4.55;;;1.02;;
37787;SDS011;23627;53.302;-6.362;2023-08-01T21:07:05;2.97;;;0.95;;
37787;SDS011;23627;53.302;-6.362;2023-08-01T21:09:31;1.50;;;0.90;;
37787;SDS011;23627;53.302;-6.362;2023-08-01T21:11:57;4.10;;;0.90;;
37787;SDS011;23627;53.302;-6.362;2023-08-01T21:14:23;3.47;;;1.10;;
37787;SDS011;23627;53.302;-6.362;2023-08-01T21:16:52;2.30;;;1.00;;
37787;SDS011;23627;53.302;-6.362;2023-08-01T21:19:18;1.88;;;0.90;;
37787;SDS011;23627;53.302;-6.362;2023-08-01T21:21:44;3.38;;;1.20;;
37787;SDS011;23627;53.302;-6.362;2023-08-01T21:24:12;2.42;;;1.08;;
37787;SDS011;23627;53.302;-6.362;2023-08-01T21:26:38;3.28;;;1.10;;
37787;SDS011;23627;53.302;-6.362;2023-08-01T21:29:04;2.50;;;1.00;;
37787;SDS011;23627;53.302;-6.362;2023-08-01T21:31:29;2.95;;;0.90;;
37787;SDS011;23627;53.302;-6.362;2023-08-01T21:33:55;4.20;;;1.00;;
37787;SDS011;23627;53.302;-6.362;2023-08-01T21:36:21;2.45;;;1.40;;
37787;SDS011;23627;53.302;-6.362;2023-08-01T21:38:50;3.33;;;1.00;;
37787;SDS011;23627;53.302;-6.362;2023-08-01T21:41:16;2.00;;;0.98;;
37787;SDS011;23627;53.302;-6.362;2023-08-01T21:43:43;4.40;;;1.30;;
37787;SDS011;23627;53.302;-6.362;2023-08-01T21:46:11;1.85;;;1.00;;
37787;SDS011;23627;53.302;-6.362;2023-08-01T21:48:37;3.00;;;1.48;;
37787;SDS011;23627;53.302;-6.362;2023-08-01T21:51:03;3.35;;;1.20;;
37787;SDS011;23627;53.302;-6.362;2023-08-01T21:53:33;3.35;;;1.27;;
37787;SDS011;23627;53.302;-6.362;2023-08-01T21:55:59;4.25;;;1.27;;
37787;SDS011;23627;53.302;-6.362;2023-08-01T21:58:25;1.63;;;0.80;;
37787;SDS011;23627;53.302;-6.362;2023-08-01T22:00:54;2.47;;;1.02;;
37787;SDS011;23627;53.302;-6.362;2023-08-01T22:03:20;2.75;;;1.02;;
37787;SDS011;23627;53.302;-6.362;2023-08-01T22:05:45;2.88;;;0.90;;
37787;SDS011;23627;53.302;-6.362;2023-08-01T22:08:27;2.92;;;1.15;;
37787;SDS011;23627;53.302;-6.362;2023-08-01T22:10:54;2.85;;;1.05;;
37787;SDS011;23627;53.302;-6.362;2023-08-01T22:13:21;3.65;;;1.30;;
37787;SDS011;23627;53.302;-6.362;2023-08-01T22:15:47;2.97;;;1.00;;
37787;SDS011;23627;53.302;-6.362;2023-08-01T22:18:13;2.05;;;1.17;;
37787;SDS011;23627;53.302;-6.362;2023-08-01T22:20:58;3.10;;;1.00;;
37787;SDS011;23627;53.302;-6.362;2023-08-01T22:23:25;2.25;;;0.80;;
37787;SDS011;23627;53.302;-6.362;2023-08-01T22:28:45;2.55;;;0.80;;
